Time;durP1;ratioP1;P1;durP2;ratioP2;P2;SDS_P1;SDS_P2;PMS_P1;PMS_P2;Temp;Humidity;BMP_temperature;BMP_pressure;BME280_temperature;BME280_humidity;BME280_pressure;Samples;Min_cycle;Max_cycle;Signal;HPM_P1;HPM_P2
2024/03/10 00:03:20;;;;;;;20.67;13.13;;;;;;;12.06;48.75;99724.31;4906521;28;123671;-64
2024/03/10 00:05:48;;;;;;;20.88;13.20;;;;;;;12.03;48.71;99729.81;4906736;28;114599;-64
2024/03/10 00:08:16;;;;;;;20.38;14.20;;;;;;;12.03;48.84;99735.97;4907189;28;113812;-64
2024/03/10 00:10:44;;;;;;;23.98;13.70;;;;;;;12.02;48.97;99738.75;4906472;28;123956;-65
2024/03/10 00:13:11;;;;;;;22.70;13.65;;;;;;;12.01;49.04;99731.75;4906479;28;123845;-64
2024/03/10 00:15:38;;;;;;;22.33;13.95;;;;;;;12.01;48.98;99731.75;4911915;28;114081;-64
2024/03/10 00:18:06;;;;;;;20.67;13.30;;;;;;;12.00;48.89;99730.91;4910409;28;114107;-65
2024/03/10 00:20:33;;;;;;;20.88;13.63;;;;;;;11.99;49.10;99731.84;4908944;28;124106;-65
2024/03/10 00:23:02;;;;;;;21.55;13.85;;;;;;;11.99;49.05;99733.66;4922752;28;122815;-64
2024/03/10 00:25:29;;;;;;;22.63;13.00;;;;;;;11.98;48.95;99726.63;4927025;28;114334;-64
2024/03/10 00:27:57;;;;;;;22.30;13.55;;;;;;;11.98;49.19;99726.63;4910274;28;114563;-65
2024/03/10 00:30:25;;;;;;;22.83;13.05;;;;;;;11.96;49.04;99723.25;4922573;28;122891;-64
2024/03/10 00:32:52;;;;;;;21.80;13.35;;;;;;;11.96;49.08;99733.84;4904059;28;123940;-64
2024/03/10 00:35:19;;;;;;;22.05;13.27;;;;;;;11.95;48.94;99733.00;4908576;28;115358;-64
2024/03/10 00:37:51;;;;;;;21.90;12.68;;;;;;;11.96;49.09;99733.84;4922053;28;114184;-64
2024/03/10 00:40:19;;;;;;;19.98;12.75;;;;;;;11.97;49.08;99732.91;4905781;28;124057;-64
2024/03/10 00:42:46;;;;;;;21.77;13.57;;;;;;;11.99;48.97;99723.03;4925178;28;123834;-64
2024/03/10 00:45:14;;;;;;;22.35;12.38;;;;;;;11.99;48.88;99723.03;4903155;28;114756;-64
2024/03/10 00:47:41;;;;;;;18.40;12.20;;;;;;;11.98;48.96;99731.94;4915585;28;112868;-64
2024/03/10 00:50:09;;;;;;;22.23;13.10;;;;;;;11.96;48.92;99728.53;4908924;28;123884;-64
2024/03/10 00:52:38;;;;;;;19.35;12.38;;;;;;;11.97;48.83;99730.25;4922197;28;123907;-64
2024/03/10 00:55:06;;;;;;;20.55;13.13;;;;;;;11.96;48.83;99733.84;4906368;28;114554;-64
2024/03/10 00:57:33;;;;;;;19.65;12.98;;;;;;;11.96;48.93;99725.91;4909307;28;114149;-64
2024/03/10 01:00:01;;;;;;;21.83;13.00;;;;;;;11.94;48.85;99725.16;4907847;28;124001;-64
2024/03/10 01:02:29;;;;;;;19.58;12.02;;;;;;;11.93;48.92;99718.16;4924386;28;123256;-64
2024/03/10 01:04:56;;;;;;;21.13;12.80;;;;;;;11.92;49.05;99727.06;4910634;28;114268;-64
2024/03/10 01:07:23;;;;;;;20.65;13.02;;;;;;;11.92;48.94;99727.06;4907873;28;115296;-64
2024/03/10 01:09:51;;;;;;;21.08;13.20;;;;;;;11.90;48.98;99723.66;4904397;28;124448;-64
2024/03/10 01:12:18;;;;;;;21.35;12.70;;;;;;;11.88;49.03;99710.47;4916509;28;124325;-64
2024/03/10 01:14:45;;;;;;;18.98;10.88;;;;;;;11.85;49.10;99711.53;4912357;28;115089;-64
2024/03/10 01:17:13;;;;;;;21.20;12.57;;;;;;;11.83;49.02;99713.44;4925312;28;113058;-64
2024/03/10 01:19:40;;;;;;;20.83;13.15;;;;;;;11.81;49.08;99709.19;4904886;28;124350;-64
2024/03/10 01:22:08;;;;;;;21.02;13.63;;;;;;;11.78;49.07;99709.41;4905413;28;123902;-64
2024/03/10 01:24:35;;;;;;;19.02;12.98;;;;;;;11.75;49.17;99699.84;4908263;28;115933;-64
2024/03/10 01:27:03;;;;;;;21.58;13.40;;;;;;;11.74;49.22;99692.84;4909932;28;114738;-64
2024/03/10 01:29:30;;;;;;;21.75;13.70;;;;;;;11.72;49.37;99684.16;4907827;28;123935;-64
2024/03/10 01:31:58;;;;;;;22.08;13.82;;;;;;;11.68;49.49;99683.53;4903075;28;124301;-64
2024/03/10 01:34:25;;;;;;;21.33;14.02;;;;;;;11.67;49.44;99680.97;4904858;28;115308;-64
2024/03/10 01:36:52;;;;;;;22.13;13.93;;;;;;;11.66;49.48;99689.88;4906865;28;113482;-64
2024/03/10 01:39:20;;;;;;;23.25;13.88;;;;;;;11.64;49.46;99681.16;4906608;28;124717;-64
2024/03/10 01:41:47;;;;;;;23.23;13.70;;;;;;;11.64;49.50;99686.47;4908759;28;123890;-64
2024/03/10 01:44:15;;;;;;;23.33;13.52;;;;;;;11.63;49.64;99685.63;4901688;28;113243;-64
2024/03/10 01:46:42;;;;;;;23.17;13.00;;;;;;;11.64;49.61;99681.16;4905133;28;114320;-64
2024/03/10 01:49:10;;;;;;;22.42;12.85;;;;;;;11.63;49.61;99679.47;4919133;28;124547;-63
2024/03/10 01:51:38;;;;;;;22.77;13.60;;;;;;;11.63;49.52;99685.63;4908438;28;123919;-64
2024/03/10 01:54:08;;;;;;;21.38;12.90;;;;;;;11.65;49.43;99677.56;4911061;28;114367;-64
2024/03/10 01:56:37;;;;;;;21.50;13.20;;;;;;;11.66;49.54;99681.94;4917624;28;112965;-64
2024/03/10 01:59:09;;;;;;;21.17;13.27;;;;;;;11.68;49.29;99687.97;4910466;28;124040;-64
2024/03/10 02:01:37;;;;;;;21.98;13.05;;;;;;;11.70;49.48;99683.41;4904290;28;124014;-64
2024/03/10 02:04:09;;;;;;;21.75;13.82;;;;;;;11.72;49.31;99689.47;4908312;28;114335;-63
2024/03/10 02:06:37;;;;;;;22.27;13.43;;;;;;;11.73;49.30;99680.53;4919763;28;113116;-64
2024/03/10 02:09:05;;;;;;;21.85;13.20;;;;;;;11.73;49.30;99677.88;4909867;28;124571;-64
2024/03/10 02:11:32;;;;;;;21.38;12.73;;;;;;;11.71;49.60;99671.84;4924172;28;124717;-64
2024/03/10 02:13:59;;;;;;;21.63;13.07;;;;;;;11.68;49.38;99664.09;4908263;28;115929;-65
2024/03/10 02:16:28;;;;;;;23.42;13.82;;;;;;;11.66;49.19;99663.38;4915481;28;115217;-64
2024/03/10 02:18:55;;;;;;;22.58;14.15;;;;;;;11.63;49.17;99652.97;4910237;28;124006;-64
2024/03/10 02:21:24;;;;;;;22.70;14.45;;;;;;;11.60;49.31;99653.16;4907745;28;123892;-64
2024/03/10 02:24:25;;;;;;;25.23;14.45;;;;;;;11.54;49.54;99653.59;4923585;28;114265;-64
2024/03/10 02:26:53;;;;;;;22.35;14.55;;;;;;;11.50;49.44;99653.78;4923426;28;114880;-64
2024/03/10 02:29:25;;;;;;;25.02;13.93;;;;;;;11.48;49.55;99644.25;4906256;28;123814;-64
2024/03/10 02:48:31;;;;;;;22.42;13.43;;;;;;;11.15;50.00;99647.38;4908689;28;113667;-64
2024/03/10 02:50:59;;;;;;;23.20;13.80;;;;;;;11.14;50.04;99645.69;4908897;28;123206;-64
2024/03/10 02:53:26;;;;;;;20.88;13.38;;;;;;;11.13;50.21;99638.66;4909024;28;124281;-64
2024/03/10 02:55:54;;;;;;;21.40;13.23;;;;;;;11.12;50.13;99634.34;4909605;28;115981;-64
2024/03/10 02:58:21;;;;;;;21.77;13.35;;;;;;;11.10;50.34;99635.28;4905229;28;113921;-64
2024/03/10 03:00:48;;;;;;;20.75;13.00;;;;;;;11.07;49.93;99627.50;4907370;28;123284;-64
2024/03/10 03:03:16;;;;;;;22.02;13.68;;;;;;;11.04;50.37;99619.78;4908460;28;123772;-64
2024/03/10 03:05:43;;;;;;;21.92;12.95;;;;;;;11.03;50.46;99610.13;4911021;28;115865;-64
2024/03/10 03:08:11;;;;;;;24.27;14.63;;;;;;;11.01;50.39;99612.03;4899308;28;116831;-64
2024/03/10 03:10:38;;;;;;;23.23;13.35;;;;;;;10.97;50.54;99602.59;4902282;28;124724;-64
2024/03/10 03:13:05;;;;;;;24.52;14.27;;;;;;;10.94;50.40;99608.09;4905322;28;123944;-64
2024/03/10 03:15:33;;;;;;;23.13;13.55;;;;;;;10.90;50.59;99602.16;4914063;28;115195;-65
2024/03/10 03:18:00;;;;;;;24.52;13.32;;;;;;;10.88;50.49;99597.91;4913067;28;113219;-64
2024/03/10 03:20:28;;;;;;;24.80;14.07;;;;;;;10.87;50.46;99590.94;4923345;28;123123;-64
2024/03/10 03:22:57;;;;;;;23.48;14.25;;;;;;;10.84;50.61;99591.13;4899136;28;123829;-64
2024/03/10 03:25:24;;;;;;;24.10;13.50;;;;;;;10.80;50.71;99594.94;4922786;28;114362;-64
2024/03/10 03:27:52;;;;;;;25.20;13.50;;;;;;;10.79;50.58;99593.22;4911598;28;114930;-64
2024/03/10 03:30:22;;;;;;;21.65;13.48;;;;;;;10.78;50.83;99586.25;4908438;28;124117;-64
2024/03/10 03:32:49;;;;;;;22.50;13.90;;;;;;;10.77;50.80;99587.19;4921820;28;123111;-64
2024/03/10 03:35:17;;;;;;;22.60;13.07;;;;;;;10.77;51.00;99587.19;4906876;28;114242;-68
2024/03/10 03:37:45;;;;;;;21.13;12.98;;;;;;;10.77;50.63;99579.25;4908972;28;114312;-67
2024/03/10 03:40:15;;;;;;;21.80;13.00;;;;;;;10.77;50.84;99579.25;4901800;28;124567;-68
2024/03/10 03:42:42;;;;;;;25.52;14.18;;;;;;;10.76;50.89;99577.56;4902875;28;123935;-68
2024/03/10 03:45:10;;;;;;;22.92;13.60;;;;;;;10.74;51.13;99574.13;4906517;28;114868;-68
2024/03/10 03:47:37;;;;;;;22.55;13.40;;;;;;;10.74;50.76;99563.53;4911838;28;114538;-68
2024/03/10 03:50:05;;;;;;;22.60;13.40;;;;;;;10.74;50.75;99568.84;4927197;28;123526;-68
2024/03/10 03:52:33;;;;;;;24.25;14.48;;;;;;;10.76;50.40;99566.97;4908360;28;123925;-68
2024/03/10 03:55:01;;;;;;;24.80;14.63;;;;;;;10.75;51.06;99559.94;4927183;28;115543;-68
2024/03/10 03:57:28;;;;;;;23.20;14.65;;;;;;;10.76;50.87;99556.38;4903962;28;114632;-68
2024/03/10 03:59:56;;;;;;;22.83;13.43;;;;;;;10.78;51.05;99565.06;4909005;28;124517;-68
2024/03/10 04:02:26;;;;;;;21.20;13.27;;;;;;;10.78;50.81;99550.00;4912290;28;122887;-68
2024/03/10 04:04:54;;;;;;;23.42;13.90;;;;;;;10.79;50.87;99556.97;4906794;28;114722;-68
2024/03/10 04:07:23;;;;;;;19.90;12.18;;;;;;;10.81;50.86;99560.41;4906910;28;114213;-68
2024/03/10 04:09:50;;;;;;;22.70;13.73;;;;;;;10.81;50.77;99565.72;4919444;28;123858;-68
2024/03/10 04:12:18;;;;;;;21.60;13.23;;;;;;;10.85;50.70;99561.03;4907507;28;123806;-68
2024/03/10 04:14:45;;;;;;;25.70;14.10;;;;;;;10.86;50.73;99558.28;4910523;28;113506;-68
2024/03/10 04:17:12;;;;;;;24.45;13.45;;;;;;;10.86;50.58;99560.09;4927481;28;113238;-68
2024/03/10 04:19:40;;;;;;;21.63;13.13;;;;;;;10.86;50.72;99563.56;4922823;28;123029;-68
2024/03/10 04:22:09;;;;;;;23.80;14.15;;;;;;;10.85;50.83;99551.31;4908930;28;123583;-68
2024/03/10 04:24:41;;;;;;;25.02;14.18;;;;;;;10.86;50.79;99557.44;4927075;28;113130;-68
2024/03/10 04:27:10;;;;;;;24.17;14.18;;;;;;;10.85;50.68;99556.59;4912192;28;113964;-68
2024/03/10 04:29:37;;;;;;;22.05;13.88;;;;;;;10.85;50.80;99555.72;4910329;28;124369;-68
2024/03/10 04:32:08;;;;;;;21.45;13.85;;;;;;;10.86;50.95;99552.13;4911304;28;124004;-68
2024/03/10 04:34:36;;;;;;;24.45;13.77;;;;;;;10.85;50.85;99555.72;4913750;28;114950;-68
2024/03/10 04:37:08;;;;;;;22.83;14.43;;;;;;;10.85;50.92;99551.31;4910420;28;114463;-68
2024/03/10 04:39:36;;;;;;;24.90;15.18;;;;;;;10.85;50.84;99545.13;4912287;28;124002;-68
2024/03/10 04:42:04;;;;;;;23.17;14.38;;;;;;;10.86;51.13;99537.09;4908021;28;123994;-68
2024/03/10 04:44:31;;;;;;;26.55;15.93;;;;;;;10.87;50.92;99537.97;4905335;28;115164;-68
2024/03/10 04:46:58;;;;;;;24.15;13.65;;;;;;;10.88;51.06;99544.94;4903381;28;115714;-68
2024/03/10 04:49:27;;;;;;;23.45;14.02;;;;;;;10.88;51.05;99544.94;4908686;28;123754;-68
2024/03/10 04:51:54;;;;;;;23.90;13.73;;;;;;;10.90;51.26;99548.31;4910456;28;123817;-68
2024/03/10 04:54:22;;;;;;;23.70;14.07;;;;;;;10.90;50.81;99548.31;4911295;28;113839;-68
2024/03/10 04:56:49;;;;;;;22.60;13.43;;;;;;;10.91;50.86;99547.38;4909115;28;114296;-68
2024/03/10 04:59:18;;;;;;;23.92;14.23;;;;;;;10.91;51.06;99536.78;4909719;28;124740;-68
2024/03/10 05:01:46;;;;;;;21.92;14.02;;;;;;;10.92;51.06;99535.81;4912817;28;124185;-68
2024/03/10 05:04:14;;;;;;;22.45;13.88;;;;;;;10.91;50.88;99529.69;4904851;28;114549;-68
2024/03/10 05:06:41;;;;;;;22.25;13.40;;;;;;;10.91;51.07;99534.16;4911567;28;113885;-68
2024/03/10 05:09:08;;;;;;;23.13;14.45;;;;;;;10.90;51.24;99532.44;4906778;28;123997;-68
2024/03/10 05:11:35;;;;;;;23.70;14.02;;;;;;;10.89;51.05;99526.31;4909976;28;124715;-68
2024/03/10 05:14:04;;;;;;;22.05;13.52;;;;;;;10.89;51.16;99536.06;4910895;28;113602;-68
2024/03/10 05:16:32;;;;;;;21.02;12.90;;;;;;;10.90;50.90;99532.44;4904834;28;114369;-68
2024/03/10 05:18:59;;;;;;;25.48;14.20;;;;;;;10.89;51.08;99518.34;4928452;28;123679;-68
2024/03/10 05:21:26;;;;;;;21.80;12.90;;;;;;;10.90;51.17;99524.50;4912482;28;124665;-68
2024/03/10 05:23:53;;;;;;;24.83;13.80;;;;;;;10.89;51.31;99520.16;4911175;28;114376;-68
2024/03/10 05:26:21;;;;;;;22.65;13.38;;;;;;;10.90;51.12;99521.84;4908658;28;114554;-68
2024/03/10 05:28:48;;;;;;;23.02;13.70;;;;;;;10.90;51.00;99521.84;4911816;28;123986;-68
2024/03/10 05:31:29;;;;;;;20.85;12.82;;;;;;;10.89;50.93;99526.31;4909434;28;122873;-68
2024/03/10 05:33:59;;;;;;;22.33;12.57;;;;;;;10.90;51.15;99527.97;4906046;28;115224;-68
2024/03/10 05:36:27;;;;;;;23.92;13.77;;;;;;;10.92;51.20;99519.94;4905010;28;115053;-68
2024/03/10 05:38:55;;;;;;;22.70;13.65;;;;;;;10.92;50.85;99519.94;4909395;28;124162;-67
2024/03/10 05:41:23;;;;;;;18.52;9.18;;;;;;;10.92;50.80;99519.94;4910039;28;123834;-68
2024/03/10 05:43:50;;;;;;;18.45;9.20;;;;;;;10.92;50.90;99519.94;4908593;28;113303;-68
2024/03/10 05:46:17;;;;;;;19.48;9.63;;;;;;;10.91;50.85;99507.66;4913774;28;114170;-68
2024/03/10 05:48:47;;;;;;;17.27;8.82;;;;;;;10.91;50.93;99507.66;4909007;28;124442;-68
2024/03/10 05:51:14;;;;;;;21.88;10.43;;;;;;;10.90;50.83;99521.84;4910045;28;124704;-68
2024/03/10 05:53:43;;;;;;;19.25;9.13;;;;;;;10.90;50.82;99524.50;4908235;28;97438;-68
2024/03/10 05:56:10;;;;;;;17.98;9.65;;;;;;;10.88;50.87;99524.59;4907531;28;114219;-67
2024/03/10 05:58:38;;;;;;;19.00;9.65;;;;;;;10.86;50.80;99525.66;4909310;28;124069;-68
2024/03/10 06:01:07;;;;;;;20.58;9.43;;;;;;;10.84;50.89;99532.84;4909006;28;124304;-67
2024/03/10 06:03:35;;;;;;;18.02;9.82;;;;;;;10.83;50.83;99525.84;4903380;28;114587;-68
2024/03/10 06:06:03;;;;;;;19.73;9.82;;;;;;;10.81;50.69;99533.06;4903659;28;113955;-68
2024/03/10 06:08:30;;;;;;;18.15;9.20;;;;;;;10.80;50.72;99536.66;4906581;28;125351;-68
2024/03/10 06:10:58;;;;;;;20.77;10.23;;;;;;;10.78;50.76;99533.28;4908690;28;123196;-68
2024/03/10 06:13:25;;;;;;;20.13;9.73;;;;;;;10.77;50.55;99536.88;4918850;28;114143;-68
2024/03/10 06:15:53;;;;;;;18.20;9.45;;;;;;;10.74;50.56;99542.34;4907869;28;114036;-68
2024/03/10 06:18:24;;;;;;;19.15;10.05;;;;;;;10.69;50.77;99540.88;4905302;28;124070;-67
2024/03/10 06:26:24;;;;;;;16.70;9.25;;;;;;;10.57;50.47;99541.69;4909786;28;114052;-68
2024/03/10 06:28:51;;;;;;;18.88;9.52;;;;;;;10.54;50.84;99541.88;4923782;28;123152;-68
2024/03/10 06:31:20;;;;;;;20.75;9.77;;;;;;;10.51;50.71;99542.09;4904460;28;124021;-70
2024/03/10 06:33:50;;;;;;;20.27;9.73;;;;;;;10.46;50.91;99552.13;4913280;28;113441;-68
2024/03/10 06:36:17;;;;;;;19.88;9.68;;;;;;;10.43;50.97;99550.53;4909876;28;114415;-68
2024/03/10 06:38:45;;;;;;;15.60;9.05;;;;;;;10.43;50.83;99552.31;4909138;28;124320;-68
2024/03/10 06:41:12;;;;;;;18.92;9.48;;;;;;;10.42;50.94;99553.28;4906038;28;123810;-68
2024/03/10 06:43:41;;;;;;;20.55;9.70;;;;;;;10.43;50.94;99557.63;4908544;28;114365;-68
2024/03/10 06:46:09;;;;;;;18.25;8.95;;;;;;;10.44;51.00;99556.69;4909960;28;114474;-68
2024/03/10 06:48:37;;;;;;;18.63;9.40;;;;;;;10.46;50.90;99554.78;4925943;28;123169;-68
2024/03/10 06:51:06;;;;;;;19.10;9.25;;;;;;;10.45;51.04;99553.94;4903723;28;123861;-68
2024/03/10 06:53:33;;;;;;;20.10;10.13;;;;;;;10.47;50.97;99552.03;4905515;28;114104;-68
2024/03/10 06:56:01;;;;;;;20.75;9.95;;;;;;;10.47;51.18;99546.75;4905641;28;114199;-68
2024/03/10 06:58:32;;;;;;;19.55;9.75;;;;;;;10.48;51.01;99550.25;4905816;28;124280;-68
2024/03/10 07:01:02;;;;;;;18.42;9.93;;;;;;;10.47;51.05;99552.03;4905592;28;123884;-65
2024/03/10 07:03:31;;;;;;;19.15;9.43;;;;;;;10.50;51.14;99553.63;4906089;28;114162;-67
2024/03/10 07:06:01;;;;;;;19.27;9.30;;;;;;;10.49;51.32;99549.28;4909684;28;113832;-68
2024/03/10 07:08:30;;;;;;;19.80;9.85;;;;;;;10.50;51.18;99546.53;4908669;28;124091;-69
2024/03/10 07:10:59;;;;;;;20.60;9.93;;;;;;;10.51;51.48;99548.25;4903978;28;123001;-68
2024/03/10 07:13:28;;;;;;;16.30;8.38;;;;;;;10.53;51.45;99550.78;4906851;28;115102;-68
2024/03/10 07:15:56;;;;;;;18.83;9.43;;;;;;;10.56;51.13;99555.88;4909592;28;115636;-68
2024/03/10 07:18:23;;;;;;;18.67;9.07;;;;;;;10.59;51.23;99550.38;4905826;28;123921;-68
2024/03/10 07:20:51;;;;;;;18.38;9.25;;;;;;;10.62;51.10;99544.88;4916780;28;122631;-68
2024/03/10 07:23:21;;;;;;;20.05;9.38;;;;;;;10.64;51.23;99553.59;4908186;28;114429;-68
2024/03/10 07:25:49;;;;;;;16.85;8.95;;;;;;;10.67;51.47;99558.66;4913052;28;114168;-68
2024/03/10 07:28:17;;;;;;;18.33;9.38;;;;;;;10.71;51.06;99554.84;4905960;28;124921;-67
2024/03/10 07:30:44;;;;;;;19.08;9.32;;;;;;;10.75;51.48;99565.25;4907337;28;123910;-68
2024/03/10 07:33:11;;;;;;;19.70;9.18;;;;;;;10.80;51.46;99568.44;4908820;28;114267;-68
2024/03/10 07:35:39;;;;;;;20.75;9.55;;;;;;;10.87;51.57;99575.03;4920235;28;113135;-68
2024/03/10 07:38:06;;;;;;;17.77;9.93;;;;;;;10.96;51.51;99577.03;4925319;28;122937;-69
2024/03/10 07:40:34;;;;;;;15.07;7.85;;;;;;;11.05;51.41;99573.78;4927357;28;124119;-70
2024/03/10 07:43:01;;;;;;;18.33;8.65;;;;;;;11.18;51.42;99580.91;4925229;28;112736;-68
2024/03/10 07:45:28;;;;;;;17.95;8.10;;;;;;;11.28;51.49;99584.63;4909574;28;114362;-68
2024/03/10 07:47:58;;;;;;;16.73;8.18;;;;;;;11.39;51.31;99582.09;4900003;28;123606;-68
2024/03/10 07:50:25;;;;;;;17.58;8.65;;;;;;;11.50;51.38;99589.31;4920588;28;122842;-68
2024/03/10 07:52:53;;;;;;;17.02;7.60;;;;;;;11.57;51.40;99595.88;4907015;28;114280;-68
2024/03/10 07:55:22;;;;;;;16.80;8.20;;;;;;;11.64;51.13;99601.59;4909849;28;112609;-69
2024/03/10 07:57:50;;;;;;;16.33;8.02;;;;;;;11.72;51.17;99593.97;4909360;28;124687;-68
2024/03/10 08:00:22;;;;;;;18.45;8.25;;;;;;;11.81;50.91;99592.47;4911366;28;124013;-68
2024/03/10 08:02:50;;;;;;;15.93;7.63;;;;;;;11.86;50.87;99585.88;4908483;28;114933;-65
2024/03/10 08:05:18;;;;;;;15.90;8.00;;;;;;;11.92;50.72;99581.13;4907364;28;115396;-64
2024/03/10 08:07:49;;;;;;;15.20;7.47;;;;;;;11.95;50.61;99589.72;4904711;28;124015;-64
2024/03/10 08:10:18;;;;;;;16.63;8.23;;;;;;;12.00;50.75;99581.47;4909579;28;123883;-64
2024/03/10 08:12:48;;;;;;;16.48;7.18;;;;;;;12.05;50.74;99590.78;4924339;28;114375;-64
2024/03/10 08:15:18;;;;;;;15.80;7.43;;;;;;;12.12;50.55;99585.03;4908491;28;113978;-64
2024/03/10 08:17:46;;;;;;;16.17;7.90;;;;;;;12.14;50.49;99573.34;4905448;28;123973;-64
2024/03/10 08:20:14;;;;;;;15.02;7.60;;;;;;;12.19;50.50;99575.69;4917676;28;123113;-64
2024/03/10 08:22:43;;;;;;;14.40;7.35;;;;;;;12.22;50.31;99578.97;4907360;28;114281;-64
2024/03/10 08:25:12;;;;;;;17.38;8.55;;;;;;;12.26;50.33;99577.78;4909351;28;114015;-64
2024/03/10 08:27:40;;;;;;;15.85;8.10;;;;;;;12.31;50.33;99568.63;4911096;28;124175;-64
2024/03/10 08:30:09;;;;;;;14.27;7.55;;;;;;;12.38;50.20;99575.19;4909293;28;123993;-64
2024/03/10 08:32:37;;;;;;;19.48;8.45;;;;;;;12.43;50.20;99573.03;4900067;28;114562;-64
2024/03/10 08:35:09;;;;;;;12.80;7.50;;;;;;;12.48;49.96;99570.88;4904481;28;113901;-64
2024/03/10 08:37:44;;;;;;;16.48;8.25;;;;;;;12.52;50.02;99561.72;4894399;28;124090;-64
2024/03/10 08:40:16;;;;;;;15.75;8.38;;;;;;;12.57;49.87;99554.28;4905306;28;123747;-64
2024/03/10 08:42:45;;;;;;;17.80;8.38;;;;;;;12.61;49.96;99566.34;4907357;28;114030;-63
2024/03/10 08:45:13;;;;;;;15.95;7.55;;;;;;;12.66;50.02;99550.94;4907957;28;114521;-64
2024/03/10 08:47:44;;;;;;;17.00;9.00;;;;;;;12.73;49.64;99558.44;4907617;28;122846;-63
2024/03/10 08:50:12;;;;;;;16.83;9.05;;;;;;;12.78;49.71;99556.28;4905459;28;123802;-64
2024/03/10 08:52:40;;;;;;;16.15;9.20;;;;;;;12.83;49.60;99548.84;4905772;28;115336;-63
2024/03/10 08:55:13;;;;;;;15.73;8.95;;;;;;;12.86;49.78;99543.28;4906823;28;114878;-64
2024/03/10 08:57:42;;;;;;;18.48;9.05;;;;;;;12.92;49.48;99537.50;4923955;28;124952;-64
2024/03/10 09:00:11;;;;;;;17.23;9.57;;;;;;;12.96;49.40;99541.63;4906634;28;124448;-64
2024/03/10 09:02:40;;;;;;;16.02;9.43;;;;;;;12.97;49.45;99545.97;4903334;28;114928;-64
2024/03/10 09:05:12;;;;;;;17.83;9.38;;;;;;;13.03;49.50;99539.31;4906857;28;113862;-63
2024/03/10 09:07:42;;;;;;;17.80;9.27;;;;;;;13.10;49.46;99542.38;4909900;28;124166;-64
2024/03/10 09:10:09;;;;;;;19.30;9.77;;;;;;;13.16;49.43;99549.88;4906939;28;123589;-64
2024/03/10 09:12:38;;;;;;;16.95;9.10;;;;;;;13.24;49.55;99552.78;4906702;28;114670;-64
2024/03/10 09:15:07;;;;;;;17.83;9.73;;;;;;;13.31;49.33;99554.03;4908062;28;113793;-64
2024/03/10 09:17:36;;;;;;;16.75;9.70;;;;;;;13.39;49.36;99546.34;4909988;28;125555;-64
2024/03/10 09:20:11;;;;;;;17.13;9.43;;;;;;;13.45;49.23;99550.34;4911277;28;123906;-64
2024/03/10 09:22:40;;;;;;;18.80;9.80;;;;;;;13.52;49.15;99534.72;4919810;28;113207;-63
2024/03/10 09:25:21;;;;;;;17.65;9.50;;;;;;;13.59;49.09;99535.94;4912060;28;113778;-63
2024/03/10 09:27:51;;;;;;;15.07;8.70;;;;;;;13.65;49.14;99543.44;4904562;28;124908;-63
2024/03/10 09:30:23;;;;;;;16.30;9.30;;;;;;;13.71;49.03;99545.63;4907041;28;124116;-63
2024/03/10 09:32:54;;;;;;;15.85;9.43;;;;;;;13.79;49.30;99553.84;4898669;28;115099;-63
2024/03/10 09:35:35;;;;;;;18.27;10.45;;;;;;;13.85;48.86;99554.34;4900927;28;114313;-63
2024/03/10 09:38:05;;;;;;;17.65;9.27;;;;;;;13.91;48.70;99556.50;4906295;28;125608;-63
2024/03/10 09:40:33;;;;;;;15.52;9.13;;;;;;;13.94;49.07;99556.25;4912086;28;123384;-63
2024/03/10 09:43:05;;;;;;;18.25;9.52;;;;;;;13.98;48.64;99547.06;4898774;28;114763;-63
2024/03/10 09:45:40;;;;;;;15.02;8.90;;;;;;;14.02;48.50;99543.19;4901497;28;115274;-63
2024/03/10 09:48:09;;;;;;;17.30;9.45;;;;;;;14.06;48.62;99549.94;4905028;28;124238;-63
2024/03/10 09:50:40;;;;;;;15.82;9.43;;;;;;;14.12;48.40;99538.78;4900436;28;123936;-63
2024/03/10 09:53:08;;;;;;;16.70;9.65;;;;;;;14.14;48.22;99531.53;4906139;28;114579;-63
2024/03/10 09:55:36;;;;;;;15.43;8.90;;;;;;;14.21;48.47;99527.41;4903343;28;114694;-63
2024/03/10 09:58:12;;;;;;;16.10;9.68;;;;;;;14.32;48.37;99512.38;4902396;28;123915;-63
2024/03/10 10:00:53;;;;;;;17.80;9.32;;;;;;;14.43;48.19;99509.66;4896940;28;124064;-64
2024/03/10 10:03:21;;;;;;;16.13;9.38;;;;;;;14.49;48.04;99482.50;4905377;28;113077;-65
2024/03/10 10:05:57;;;;;;;18.10;9.82;;;;;;;14.56;48.00;99456.19;4917210;28;114214;-64
2024/03/10 10:08:24;;;;;;;15.85;9.07;;;;;;;14.63;47.92;99472.56;4902650;28;124824;-64
2024/03/10 10:10:52;;;;;;;15.95;9.32;;;;;;;14.71;47.85;99486.94;4912006;28;123729;-64
2024/03/10 10:13:22;;;;;;;18.75;9.63;;;;;;;14.81;47.72;99473.66;4903069;28;114534;-64
2024/03/10 10:15:52;;;;;;;18.67;9.57;;;;;;;14.89;47.83;99465.03;4906766;28;114079;-63
2024/03/10 10:18:21;;;;;;;15.73;9.57;;;;;;;14.99;47.50;99458.78;4898982;28;123075;-64
2024/03/10 10:20:51;;;;;;;16.13;8.88;;;;;;;15.06;47.55;99459.06;4914062;28;123916;-64
2024/03/10 10:23:24;;;;;;;16.75;8.35;;;;;;;15.10;47.29;99457.84;4900524;28;114676;-64
2024/03/10 10:25:53;;;;;;;13.68;7.68;;;;;;;15.16;47.29;99469.78;4906572;28;115444;-64
2024/03/10 10:28:20;;;;;;;16.92;9.18;;;;;;;15.24;47.07;99467.31;4900910;28;124103;-63
2024/03/10 10:30:48;;;;;;;15.75;8.82;;;;;;;15.33;47.24;99471.88;4923959;28;123220;-64
2024/03/10 10:33:17;;;;;;;17.20;9.25;;;;;;;15.46;47.44;99474.28;4907743;28;114397;-63
2024/03/10 10:35:45;;;;;;;15.70;8.18;;;;;;;15.60;47.30;99481.09;4902048;28;115514;-64
2024/03/10 10:38:13;;;;;;;14.80;8.38;;;;;;;15.72;47.06;99482.66;4902590;28;123917;-63
2024/03/10 10:40:47;;;;;;;17.23;8.55;;;;;;;15.80;46.89;99494.53;4905525;28;123318;-64
2024/03/10 10:43:16;;;;;;;13.60;8.00;;;;;;;15.88;46.83;99508.03;4903384;28;114155;-64
2024/03/10 10:45:44;;;;;;;15.35;8.55;;;;;;;15.96;46.96;99516.22;4898874;28;114110;-64
2024/03/10 10:48:11;;;;;;;15.30;8.82;;;;;;;16.08;46.98;99533.81;4907557;28;124027;-64
2024/03/10 10:50:42;;;;;;;16.50;9.13;;;;;;;16.21;46.88;99540.75;4903788;28;124167;-63
2024/03/10 10:53:12;;;;;;;15.70;9.38;;;;;;;16.30;46.34;99529.22;4903869;28;113574;-64
2024/03/10 10:55:40;;;;;;;13.75;8.52;;;;;;;16.32;46.11;99517.41;4907922;28;114302;-64
2024/03/10 10:58:15;;;;;;;15.02;9.15;;;;;;;16.34;45.93;99498.56;4906343;28;124767;-63
2024/03/10 11:00:53;;;;;;;15.35;8.65;;;;;;;16.38;46.13;99510.66;4898845;28;124215;-64
2024/03/10 11:03:24;;;;;;;14.90;8.60;;;;;;;16.43;46.25;99529.81;4904371;28;114647;-68
2024/03/10 11:06:02;;;;;;;16.63;9.27;;;;;;;16.51;45.95;99527.28;4906156;28;114490;-64
2024/03/10 11:08:35;;;;;;;16.00;9.75;;;;;;;16.55;45.64;99523.31;4905172;28;124158;-64
2024/03/10 11:11:03;;;;;;;17.45;10.00;;;;;;;16.53;45.29;99511.09;4902576;28;123859;-63
2024/03/10 11:13:32;;;;;;;15.80;9.25;;;;;;;16.52;45.49;99518.28;4903552;28;114872;-68
2024/03/10 11:16:23;;;;;;;18.55;10.13;;;;;;;16.54;45.61;99520.81;4900969;28;113787;-68
2024/03/10 11:19:20;;;;;;;16.77;9.65;;;;;;;16.57;45.68;99519.69;4894625;28;124060;-69
2024/03/10 11:21:50;;;;;;;15.43;9.60;;;;;;;16.60;45.34;99514.06;4918598;28;124589;-69
2024/03/10 11:24:26;;;;;;;16.45;9.73;;;;;;;16.63;45.40;99519.13;4901185;28;114758;-68
2024/03/10 11:27:19;;;;;;;15.45;9.30;;;;;;;16.66;45.46;99527.69;4905723;28;115380;-68
2024/03/10 11:29:48;;;;;;;15.45;9.18;;;;;;;16.73;45.50;99528.00;4907080;28;124164;-68
2024/03/10 11:32:33;;;;;;;16.08;9.60;;;;;;;16.75;45.31;99523.34;4899486;28;124642;-68
2024/03/10 11:35:06;;;;;;;18.83;10.38;;;;;;;16.75;45.18;99523.34;4904313;28;114310;-68
2024/03/10 11:37:36;;;;;;;17.03;10.53;;;;;;;16.73;44.96;99522.66;4904545;28;114277;-69
2024/03/10 11:40:05;;;;;;;16.50;10.40;;;;;;;16.71;44.89;99527.31;4904435;28;124929;-69
2024/03/10 11:42:33;;;;;;;18.10;10.40;;;;;;;16.69;44.85;99519.41;4906548;28;122694;-68
2024/03/10 11:45:02;;;;;;;18.90;10.57;;;;;;;16.68;44.93;99511.53;4902859;28;114356;-69